createdAt,value
2019-04-21T00:01:51.085Z,3.40
2019-04-21T00:04:34.627Z,3.83
2019-04-21T00:07:10.141Z,3.20
2019-04-21T00:09:48.611Z,3.50
2019-04-21T00:12:15.459Z,3.27
2019-04-21T00:14:35.807Z,3.13
2019-04-21T00:16:58.027Z,3.47
2019-04-21T00:19:32.249Z,3.70
2019-04-21T00:22:08.648Z,3.83
2019-04-21T00:24:44.728Z,3.80
2019-04-21T00:27:15.596Z,3.83
2019-04-21T00:29:49.757Z,3.80
2019-04-21T00:32:16.719Z,3.60
2019-04-21T00:34:31.910Z,3.30
2019-04-21T00:37:12.092Z,3.40
2019-04-21T00:42:18.211Z,3.50
2019-04-21T00:44:44.309Z,3.30
2019-04-21T00:47:26.653Z,3.70
2019-04-21T00:49:56.626Z,3.60
2019-04-21T00:55:33.900Z,3.60
2019-04-21T00:57:53.419Z,3.53
2019-04-21T01:00:18.715Z,3.40
2019-04-21T01:02:51.126Z,3.20
2019-04-21T01:05:16.682Z,3.37
2019-04-21T01:07:59.432Z,3.50
2019-04-21T01:10:05.299Z,3.60
2019-04-21T01:12:49.013Z,3.30
2019-04-21T01:15:24.783Z,3.30
2019-04-21T01:17:46.265Z,3.53
2019-04-21T01:20:07.911Z,3.83
2019-04-21T01:22:25.051Z,3.90
2019-04-21T01:25:05.810Z,3.60
2019-04-21T01:27:48.478Z,3.80
2019-04-21T01:30:16.315Z,3.90
2019-04-21T01:32:48.180Z,4.07
2019-04-21T01:35:15.084Z,3.60
2019-04-21T01:37:49.684Z,3.67
2019-04-21T01:40:22.631Z,3.80
2019-04-21T01:42:45.911Z,3.87
2019-04-21T01:45:18.882Z,3.73
2019-04-21T01:47:43.930Z,3.70
2019-04-21T01:50:05.741Z,3.40
2019-04-21T01:52:56.048Z,4.13
2019-04-21T01:55:20.768Z,3.53
2019-04-21T01:57:49.484Z,3.57
2019-04-21T02:00:13.326Z,3.80
2019-04-21T02:02:59.223Z,4.30
2019-04-21T02:05:32.971Z,3.97
2019-04-21T02:07:55.224Z,3.90
2019-04-21T02:10:34.681Z,3.90
2019-04-21T02:12:59.730Z,3.70
2019-04-21T02:15:31.132Z,3.97
2019-04-21T02:17:59.470Z,4.13
2019-04-21T02:20:21.816Z,3.90
2019-04-21T02:25:31.702Z,4.00
2019-04-21T02:28:03.325Z,4.67
2019-04-21T02:31:04.895Z,4.27
2019-04-21T02:33:19.508Z,4.30
2019-04-21T02:35:50.790Z,4.53
2019-04-21T02:50:46.943Z,4.40
2019-04-21T02:53:21.055Z,4.20
2019-04-21T02:55:43.712Z,4.80
2019-04-21T03:01:12.511Z,4.77
2019-04-21T03:03:51.401Z,4.97
2019-04-21T03:06:16.820Z,4.90
2019-04-21T03:08:51.557Z,4.93
2019-04-21T03:11:14.905Z,4.20
2019-04-21T03:13:47.213Z,4.60
2019-04-21T03:16:26.360Z,4.77
2019-04-21T03:21:26.308Z,4.93
2019-04-21T03:28:56.291Z,5.40
2019-04-21T03:31:39.306Z,5.23
2019-04-21T03:34:28.904Z,4.97
2019-04-21T03:36:43.577Z,4.93
2019-04-21T03:38:47.381Z,5.60
2019-04-21T03:41:26.849Z,4.70
2019-04-21T03:43:50.633Z,5.40
2019-04-21T03:46:24.215Z,5.27
2019-04-21T03:48:53.966Z,4.90
2019-04-21T03:51:20.303Z,5.20
2019-04-21T03:53:48.019Z,5.37
2019-04-21T03:56:27.240Z,5.17
2019-04-21T03:59:09.939Z,4.67
2019-04-21T04:01:16.593Z,4.73
2019-04-21T04:04:28.359Z,5.80
2019-04-21T04:16:58.538Z,5.43
2019-04-21T04:19:22.866Z,6.30
2019-04-21T04:21:56.410Z,5.73
2019-04-21T04:26:57.771Z,5.47
2019-04-21T04:29:19.203Z,6.60
2019-04-21T04:31:43.561Z,5.97
2019-04-21T04:34:21.749Z,5.70
2019-04-21T04:39:36.222Z,6.10
2019-04-21T04:42:06.762Z,6.07
2019-04-21T04:47:04.746Z,6.77
2019-04-21T04:49:40.146Z,6.50
2019-04-21T04:54:39.043Z,6.27
2019-04-21T04:57:08.259Z,6.20
2019-04-21T05:04:40.253Z,7.17
2019-04-21T05:07:00.050Z,6.87
2019-04-21T05:11:55.284Z,6.23
2019-04-21T05:17:07.110Z,6.97
2019-04-21T05:19:32.239Z,7.03
2019-04-21T05:21:57.133Z,6.67
2019-04-21T05:24:17.828Z,7.33
2019-04-21T05:26:48.041Z,6.90
2019-04-21T05:29:15.803Z,6.67
2019-04-21T05:31:56.951Z,6.40
2019-04-21T05:34:27.615Z,7.00
2019-04-21T05:37:07.475Z,7.27
2019-04-21T05:39:51.197Z,7.27
2019-04-21T05:42:10.504Z,7.20
2019-04-21T05:44:58.303Z,7.97
2019-04-21T05:47:34.900Z,7.10
2019-04-21T05:49:55.959Z,6.67
2019-04-21T05:52:23.173Z,6.90
2019-04-21T05:55:01.283Z,6.70
2019-04-21T05:57:32.248Z,7.57
2019-04-21T06:00:06.648Z,7.17
2019-04-21T06:02:31.580Z,7.30
2019-04-21T06:09:59.593Z,7.10
2019-04-21T06:12:36.104Z,6.87
2019-04-21T06:15:03.744Z,6.47
2019-04-21T06:17:34.860Z,6.90
2019-04-21T06:20:02.860Z,7.00
2019-04-21T06:22:33.151Z,6.97
2019-04-21T06:27:32.497Z,6.70
2019-04-21T06:30:22.374Z,6.97
2019-04-21T06:35:12.715Z,6.97
2019-04-21T06:37:43.278Z,6.70
2019-04-21T06:42:40.307Z,6.97
2019-04-21T06:45:27.610Z,7.00
2019-04-21T06:47:47.222Z,6.80
2019-04-21T06:50:11.999Z,6.73
2019-04-21T06:55:15.324Z,6.70
2019-04-21T06:57:39.585Z,7.10
2019-04-21T07:00:07.459Z,6.63
2019-04-21T07:03:01.177Z,6.90
2019-04-21T07:05:07.842Z,7.43
2019-04-21T07:07:43.633Z,7.40
2019-04-21T07:10:12.361Z,7.20
2019-04-21T07:12:39.338Z,7.00
2019-04-21T07:15:11.323Z,7.37
2019-04-21T07:17:38.878Z,6.90
2019-04-21T07:20:12.176Z,7.13
2019-04-21T07:22:44.176Z,7.23
2019-04-21T07:25:15.392Z,6.83
2019-04-21T07:27:43.423Z,7.37
2019-04-21T07:30:14.959Z,6.73
2019-04-21T07:32:45.702Z,7.40
2019-04-21T07:35:17.166Z,6.55
2019-04-21T07:37:41.337Z,7.12
2019-04-21T07:40:05.433Z,6.50
2019-04-21T07:42:41.187Z,6.05
2019-04-21T07:45:05.257Z,6.33
2019-04-21T07:47:46.342Z,6.55
2019-04-21T07:50:24.798Z,5.75
2019-04-21T07:52:55.361Z,6.20
2019-04-21T07:57:45.716Z,6.05
2019-04-21T08:02:49.335Z,6.45
2019-04-21T08:05:28.051Z,6.42
2019-04-21T08:07:54.215Z,6.10
2019-04-21T08:10:23.022Z,6.10
2019-04-21T08:12:49.421Z,5.90
2019-04-21T08:18:09.227Z,6.85
2019-04-21T08:20:18.885Z,7.05
2019-04-21T08:22:55.156Z,6.95
2019-04-21T08:25:21.868Z,7.42
2019-04-21T08:27:57.006Z,7.42
2019-04-21T08:30:27.469Z,7.60
2019-04-21T08:33:02.530Z,8.60
2019-04-21T08:37:59.114Z,9.00
2019-04-21T08:40:32.720Z,9.38
2019-04-21T08:42:55.049Z,9.05
2019-04-21T08:45:30.829Z,9.50
2019-04-21T08:48:02.737Z,9.75
2019-04-21T08:50:25.483Z,9.63
2019-04-21T08:53:04.166Z,9.40
2019-04-21T08:55:41.970Z,9.88
2019-04-21T08:58:27.731Z,9.78
2019-04-21T09:00:48.912Z,9.80
2019-04-21T09:03:24.235Z,9.70
2019-04-21T09:05:49.388Z,10.28
2019-04-21T09:08:19.548Z,10.23
2019-04-21T09:10:47.231Z,9.70
2019-04-21T09:13:17.189Z,8.85
2019-04-21T09:15:47.429Z,9.50
2019-04-21T09:18:13.373Z,8.08
2019-04-21T09:20:52.137Z,8.58
2019-04-21T09:23:19.383Z,9.00
2019-04-21T09:25:52.997Z,10.35
2019-04-21T09:28:18.482Z,9.10
2019-04-21T09:30:40.511Z,9.33
2019-04-21T09:33:02.402Z,9.48
2019-04-21T09:35:31.588Z,9.00
2019-04-21T09:38:12.675Z,8.80
2019-04-21T09:40:37.216Z,8.68
2019-04-21T09:43:04.807Z,7.60
2019-04-21T09:45:30.816Z,8.58
2019-04-21T09:48:06.378Z,8.05
2019-04-21T09:50:29.610Z,7.10
2019-04-21T09:53:05.442Z,7.22
2019-04-21T09:55:39.127Z,6.62
2019-04-21T09:58:12.722Z,6.25
2019-04-21T10:00:37.935Z,6.10
2019-04-21T10:03:05.832Z,5.85
2019-04-21T10:05:29.766Z,5.95
2019-04-21T10:07:59.829Z,5.58
2019-04-21T10:10:29.636Z,6.10
2019-04-21T10:12:58.296Z,5.95
2019-04-21T10:15:28.296Z,5.90
2019-04-21T10:17:58.597Z,4.80
2019-04-21T10:20:27.077Z,4.10
2019-04-21T10:22:55.534Z,4.25
2019-04-21T10:25:25.065Z,4.10
2019-04-21T10:27:54.834Z,4.60
2019-04-21T10:30:24.618Z,4.33
2019-04-21T10:32:54.313Z,4.60
2019-04-21T10:35:24.381Z,4.30
2019-04-21T10:38:05.768Z,3.90
2019-04-21T10:40:25.463Z,4.10
2019-04-21T10:42:54.246Z,4.12
2019-04-21T10:45:23.123Z,3.45
2019-04-21T10:47:52.800Z,2.87
2019-04-21T10:50:22.623Z,3.00
2019-04-21T10:53:04.980Z,2.45
2019-04-21T10:55:48.563Z,2.58
2019-04-21T10:58:24.444Z,3.10
2019-04-21T11:00:55.682Z,3.20
2019-04-21T11:03:38.337Z,3.35
2019-04-21T11:06:08.672Z,3.30
2019-04-21T11:08:42.975Z,4.15
2019-04-21T11:11:07.996Z,3.30
2019-04-21T11:13:37.022Z,3.10
2019-04-21T11:16:05.767Z,3.90
2019-04-21T11:18:34.235Z,3.35
2019-04-21T11:21:03.022Z,3.57
2019-04-21T11:23:33.099Z,4.00
2019-04-21T11:26:02.266Z,3.53
2019-04-21T11:28:31.148Z,3.77
2019-04-21T11:31:00.560Z,3.50
2019-04-21T11:33:29.188Z,3.97
2019-04-21T11:35:57.650Z,4.00
2019-04-21T11:38:30.445Z,3.50
2019-04-21T11:40:58.169Z,3.43
2019-04-21T11:43:26.740Z,4.20
2019-04-21T11:45:55.529Z,3.73
2019-04-21T11:48:28.393Z,3.63
2019-04-21T11:50:57.493Z,3.87
2019-04-21T11:53:26.239Z,3.30
2019-04-21T11:55:55.536Z,3.53
2019-04-21T11:58:26.202Z,3.83
2019-04-21T12:01:03.465Z,3.50
2019-04-21T12:03:33.517Z,3.70
2019-04-21T12:06:03.575Z,3.30
2019-04-21T12:08:40.173Z,3.23
2019-04-21T12:11:03.225Z,3.13
2019-04-21T12:13:32.255Z,3.10
2019-04-21T12:16:01.109Z,3.30
2019-04-21T12:18:30.479Z,3.37
2019-04-21T12:21:01.125Z,3.80
2019-04-21T12:23:30.179Z,3.07
2019-04-21T12:25:59.158Z,3.43
2019-04-21T12:28:28.107Z,3.57
2019-04-21T12:30:57.900Z,3.60
2019-04-21T12:33:32.092Z,3.13
2019-04-21T12:36:01.922Z,3.17
2019-04-21T12:38:40.964Z,3.70
2019-04-21T12:41:00.852Z,3.70
2019-04-21T12:43:30.588Z,3.40
2019-04-21T12:46:00.059Z,3.70
2019-04-21T12:48:29.634Z,3.23
2019-04-21T12:50:59.698Z,3.40
2019-04-21T12:53:29.595Z,4.00
2019-04-21T12:55:58.225Z,4.60
2019-04-21T12:58:26.680Z,3.53
2019-04-21T13:00:56.667Z,4.17
2019-04-21T13:03:26.813Z,4.23
2019-04-21T13:05:55.896Z,3.73
2019-04-21T13:08:25.007Z,3.60
2019-04-21T13:10:55.971Z,3.17
2019-04-21T13:13:26.010Z,3.73
2019-04-21T13:15:55.758Z,3.60
2019-04-21T13:18:24.401Z,3.33
2019-04-21T13:20:54.018Z,3.57
2019-04-21T13:23:23.112Z,2.97
2019-04-21T13:25:51.977Z,3.67
2019-04-21T13:28:20.831Z,3.57
2019-04-21T13:30:50.675Z,3.67
2019-04-21T13:33:21.013Z,3.50
2019-04-21T13:35:50.937Z,3.40
2019-04-21T13:38:29.043Z,4.47
2019-04-21T13:41:14.959Z,3.40
2019-04-21T13:43:29.322Z,3.43
2019-04-21T13:45:59.499Z,3.33
2019-04-21T13:48:28.620Z,3.60
2019-04-21T13:50:57.449Z,3.30
2019-04-21T13:53:26.846Z,3.70
2019-04-21T13:55:56.463Z,3.40
2019-04-21T13:58:26.323Z,3.63
2019-04-21T14:00:56.089Z,3.97
2019-04-21T14:03:26.650Z,4.37
2019-04-21T14:05:56.189Z,3.93
2019-04-21T14:08:25.339Z,4.00
2019-04-21T14:10:54.266Z,4.17
2019-04-21T14:13:24.614Z,3.93
2019-04-21T14:15:53.871Z,3.97
2019-04-21T14:18:22.716Z,4.03
2019-04-21T14:20:51.413Z,4.17
2019-04-21T14:23:29.948Z,3.93
2019-04-21T14:25:50.274Z,4.37
2019-04-21T14:28:19.961Z,4.07
2019-04-21T14:30:48.648Z,4.13
2019-04-21T14:33:18.312Z,4.23
2019-04-21T14:35:47.176Z,3.77
2019-04-21T14:38:16.547Z,4.03
2019-04-21T14:40:46.149Z,4.13
2019-04-21T14:43:16.316Z,3.90
2019-04-21T14:45:50.494Z,4.10
2019-04-21T14:48:37.088Z,3.90
2019-04-21T14:51:07.266Z,3.60
2019-04-21T14:53:56.322Z,3.67
2019-04-21T14:56:25.397Z,3.50
2019-04-21T14:58:57.306Z,3.50
2019-04-21T15:01:26.141Z,3.33
2019-04-21T15:03:55.450Z,3.43
2019-04-21T15:06:25.342Z,3.67
2019-04-21T15:08:55.410Z,3.23
2019-04-21T15:11:24.252Z,3.00
2019-04-21T15:13:53.641Z,3.20
2019-04-21T15:16:22.868Z,3.17
2019-04-21T15:18:52.698Z,3.00
2019-04-21T15:21:25.691Z,3.57
2019-04-21T15:23:54.364Z,3.43
2019-04-21T15:26:24.157Z,3.40
2019-04-21T15:28:52.924Z,3.53
2019-04-21T15:31:28.720Z,3.37
2019-04-21T15:33:52.849Z,3.17
2019-04-21T15:36:22.807Z,3.83
2019-04-21T15:38:51.995Z,3.57
2019-04-21T15:41:20.782Z,3.30
2019-04-21T15:43:49.263Z,3.30
2019-04-21T15:46:18.496Z,2.70
2019-04-21T15:48:47.091Z,3.20
2019-04-21T15:51:15.902Z,3.00
2019-04-21T15:53:46.012Z,2.93
2019-04-21T15:56:20.564Z,3.37
2019-04-21T15:59:04.229Z,2.93
2019-04-21T16:01:38.722Z,3.17
2019-04-21T16:04:08.014Z,3.50
2019-04-21T16:06:37.352Z,3.40
2019-04-21T16:09:14.216Z,3.03
2019-04-21T16:11:39.837Z,3.50
2019-04-21T16:14:10.008Z,3.20
2019-04-21T16:16:39.241Z,2.97
2019-04-21T16:19:08.166Z,3.30
2019-04-21T16:21:40.594Z,3.23
2019-04-21T16:24:07.069Z,3.33
2019-04-21T16:26:35.595Z,3.13
2019-04-21T16:29:05.037Z,3.40
2019-04-21T16:31:34.293Z,3.10
2019-04-21T16:34:03.245Z,3.13
2019-04-21T16:36:31.982Z,3.30
2019-04-21T16:39:01.843Z,3.13
2019-04-21T16:41:32.089Z,3.20
2019-04-21T16:44:00.958Z,3.33
2019-04-21T16:46:29.764Z,3.40
2019-04-21T16:48:58.247Z,3.00
2019-04-21T16:51:26.794Z,2.90
2019-04-21T16:53:57.796Z,3.10
2019-04-21T16:56:43.848Z,3.10
2019-04-21T16:59:16.822Z,3.20
2019-04-21T17:01:48.898Z,3.50
2019-04-21T17:04:18.336Z,2.90
2019-04-21T17:06:47.184Z,3.30
2019-04-21T17:09:16.764Z,3.37
2019-04-21T17:11:46.948Z,3.50
2019-04-21T17:14:32.366Z,3.17
2019-04-21T17:17:16.123Z,3.57
2019-04-21T17:19:24.142Z,3.10
2019-04-21T17:21:47.941Z,2.90
2019-04-21T17:24:16.781Z,2.90
2019-04-21T17:26:46.492Z,3.07
2019-04-21T17:29:16.830Z,3.30
2019-04-21T17:31:47.620Z,2.83
2019-04-21T17:34:21.621Z,3.80
2019-04-21T17:36:47.286Z,3.03
2019-04-21T17:39:18.564Z,3.00
2019-04-21T17:42:04.087Z,2.77
2019-04-21T17:44:17.459Z,3.00
2019-04-21T17:46:53.832Z,3.30
2019-04-21T17:49:16.978Z,2.90
2019-04-21T17:52:06.377Z,3.17
2019-04-21T17:54:44.803Z,2.90
2019-04-21T17:57:31.690Z,2.80
2019-04-21T18:00:09.771Z,2.93
2019-04-21T18:02:36.929Z,3.50
2019-04-21T18:05:10.645Z,3.37
2019-04-21T18:07:34.989Z,3.50
2019-04-21T18:10:07.771Z,3.37
2019-04-21T18:12:36.241Z,3.77
2019-04-21T18:15:02.511Z,3.47
2019-04-21T18:17:22.821Z,3.40
2019-04-21T18:19:53.613Z,3.40
2019-04-21T18:25:25.410Z,3.87
2019-04-21T18:27:42.698Z,3.50
2019-04-21T18:30:38.134Z,3.60
2019-04-21T18:33:15.634Z,3.57
2019-04-21T18:36:00.056Z,3.50
2019-04-21T18:39:06.831Z,3.70
2019-04-21T18:41:34.701Z,3.53
2019-04-21T18:44:44.422Z,3.77
2019-04-21T18:47:12.170Z,4.20
2019-04-21T18:49:19.311Z,4.13
2019-04-21T18:52:06.795Z,3.97
2019-04-21T18:54:53.317Z,3.97
2019-04-21T18:57:10.605Z,3.70
2019-04-21T18:59:37.263Z,4.07
2019-04-21T19:02:07.936Z,4.17
2019-04-21T19:04:36.833Z,3.90
2019-04-21T19:07:18.277Z,4.90
2019-04-21T19:10:12.650Z,5.40
2019-04-21T19:12:35.137Z,5.50
2019-04-21T19:14:53.935Z,5.03
2019-04-21T19:20:04.701Z,5.60
2019-04-21T19:22:20.374Z,4.73
2019-04-21T19:24:57.226Z,5.63
2019-04-21T19:27:38.336Z,6.10
2019-04-21T19:30:13.511Z,6.33
2019-04-21T19:32:25.378Z,5.73
2019-04-21T19:34:40.891Z,6.33
2019-04-21T19:37:14.418Z,6.40
2019-04-21T19:39:50.789Z,5.87
2019-04-21T19:42:16.939Z,6.50
2019-04-21T19:44:52.143Z,6.07
2019-04-21T19:47:28.239Z,6.27
2019-04-21T19:50:00.343Z,6.10
2019-04-21T19:52:20.388Z,6.60
2019-04-21T19:54:44.482Z,6.47
2019-04-21T19:57:09.132Z,6.40
2019-04-21T19:59:44.771Z,6.53
2019-04-21T20:02:09.005Z,7.97
2019-04-21T20:04:43.887Z,7.30
2019-04-21T20:07:23.278Z,7.27
2019-04-21T20:09:55.806Z,6.53
2019-04-21T20:12:34.299Z,7.40
2019-04-21T20:14:59.360Z,7.33
2019-04-21T20:17:24.752Z,7.17
2019-04-21T20:19:40.204Z,6.17
2019-04-21T20:22:09.401Z,6.20
2019-04-21T20:24:39.704Z,6.30
2019-04-21T20:27:15.878Z,6.03
2019-04-21T20:29:57.528Z,6.00
2019-04-21T20:32:36.647Z,6.97
2019-04-21T20:35:02.766Z,6.60
2019-04-21T20:37:26.425Z,5.97
2019-04-21T20:39:47.311Z,6.00
2019-04-21T20:42:21.001Z,6.00
2019-04-21T20:45:16.151Z,5.93
2019-04-21T20:47:19.755Z,5.40
2019-04-21T20:49:52.331Z,5.67
2019-04-21T20:52:33.337Z,6.00
2019-04-21T20:54:56.776Z,4.70
2019-04-21T20:57:27.380Z,4.97
2019-04-21T20:59:57.903Z,5.20
2019-04-21T21:02:28.422Z,4.90
2019-04-21T21:04:51.362Z,5.07
2019-04-21T21:07:39.992Z,5.10
2019-04-21T21:10:00.116Z,4.90
2019-04-21T21:12:40.727Z,4.60
2019-04-21T21:14:54.080Z,4.43
2019-04-21T21:20:03.374Z,4.00
2019-04-21T21:22:29.363Z,3.73
2019-04-21T21:24:55.838Z,3.90
2019-04-21T21:27:30.872Z,4.33
2019-04-21T21:30:04.797Z,4.40
2019-04-21T21:32:33.967Z,3.77
2019-04-21T21:35:03.555Z,3.87
2019-04-21T21:37:49.000Z,3.40
2019-04-21T21:40:07.199Z,3.60
2019-04-21T21:42:25.351Z,3.60
2019-04-21T21:44:49.491Z,3.40
2019-04-21T21:47:31.891Z,2.93
2019-04-21T21:49:58.160Z,3.30
2019-04-21T21:52:24.487Z,3.10
2019-04-21T21:54:47.299Z,3.80
2019-04-21T21:57:16.515Z,3.00
2019-04-21T21:59:45.398Z,3.43
2019-04-21T22:02:21.721Z,3.50
2019-04-21T22:04:54.672Z,3.30
2019-04-21T22:07:17.795Z,3.33
2019-04-21T22:09:46.365Z,3.33
2019-04-21T22:12:16.093Z,3.53
2019-04-21T22:14:48.665Z,3.47
2019-04-21T22:17:33.269Z,3.27
2019-04-21T22:20:22.612Z,3.37
2019-04-21T22:22:29.566Z,3.33
2019-04-21T22:24:55.702Z,3.23
2019-04-21T22:27:16.873Z,3.60
2019-04-21T22:29:49.815Z,3.50
2019-04-21T22:32:22.908Z,3.67
2019-04-21T22:34:51.437Z,3.40
2019-04-21T22:37:32.922Z,3.53
2019-04-21T22:40:02.234Z,3.30
2019-04-21T22:42:23.481Z,3.47
2019-04-21T22:44:48.099Z,3.37
2019-04-21T22:47:23.704Z,3.27
2019-04-21T22:49:48.492Z,3.47
2019-04-21T22:52:21.023Z,3.30
2019-04-21T22:54:49.394Z,3.20
2019-04-21T22:57:21.662Z,2.80
2019-04-21T22:59:54.809Z,3.13
2019-04-21T23:02:25.978Z,3.53
2019-04-21T23:04:53.280Z,2.97
2019-04-21T23:07:21.073Z,3.20
2019-04-21T23:09:49.499Z,2.93
2019-04-21T23:12:20.488Z,3.23
2019-04-21T23:14:57.324Z,2.77
2019-04-21T23:17:37.837Z,2.93
2019-04-21T23:20:14.514Z,2.80
2019-04-21T23:22:40.284Z,2.70
2019-04-21T23:25:07.682Z,2.70
2019-04-21T23:27:34.396Z,2.73
2019-04-21T23:30:13.681Z,2.77
2019-04-21T23:32:35.157Z,3.00
2019-04-21T23:34:51.093Z,2.93
2019-04-21T23:37:24.123Z,3.33
2019-04-21T23:39:52.207Z,2.80
2019-04-21T23:42:29.069Z,3.13
2019-04-21T23:44:55.171Z,2.83
2019-04-21T23:47:37.362Z,2.73
2019-04-21T23:50:00.251Z,3.17
2019-04-21T23:52:21.878Z,3.00
2019-04-21T23:54:51.579Z,2.87
2019-04-21T23:57:29.797Z,3.03
2019-04-21T23:59:54.156Z,3.50
